sensor_id;sensor_type;location;lat;lon;timestamp;P1;durP1;ratioP1;P2;durP2;ratioP2
7829;SDS011;3960;51.86894000;5.39848000;2022-12-15T00:00:40;25.48;;;14.35;;
7829;SDS011;3960;51.86894000;5.39848000;2022-12-15T00:03:24;26.85;;;14.65;;
7829;SDS011;3960;51.86894000;5.39848000;2022-12-15T00:06:08;24.45;;;14.27;;
7829;SDS011;3960;51.86894000;5.39848000;2022-12-15T00:08:52;24.15;;;13.50;;
7829;SDS011;3960;51.86894000;5.39848000;2022-12-15T00:11:36;24.17;;;14.15;;
7829;SDS011;3960;51.86894000;5.39848000;2022-12-15T00:14:20;24.45;;;13.75;;
7829;SDS011;3960;51.86894000;5.39848000;2022-12-15T00:17:04;24.98;;;13.55;;
7829;SDS011;3960;51.86894000;5.39848000;2022-12-15T00:19:48;30.20;;;15.00;;
7829;SDS011;3960;51.86894000;5.39848000;2022-12-15T00:22:32;23.08;;;13.07;;
7829;SDS011;3960;51.86894000;5.39848000;2022-12-15T00:25:16;27.83;;;13.32;;
7829;SDS011;3960;51.86894000;5.39848000;2022-12-15T00:28:00;30.58;;;13.85;;
7829;SDS011;3960;51.86894000;5.39848000;2022-12-15T00:30:44;23.42;;;12.95;;
7829;SDS011;3960;51.86894000;5.39848000;2022-12-15T00:33:28;22.88;;;12.40;;
7829;SDS011;3960;51.86894000;5.39848000;2022-12-15T00:36:12;27.35;;;13.65;;
7829;SDS011;3960;51.86894000;5.39848000;2022-12-15T00:38:56;29.88;;;12.65;;
7829;SDS011;3960;51.86894000;5.39848000;2022-12-15T00:41:21;23.53;;;12.93;;
7829;SDS011;3960;51.86894000;5.39848000;2022-12-15T00:43:46;25.13;;;14.10;;
7829;SDS011;3960;51.86894000;5.39848000;2022-12-15T00:46:11;24.37;;;13.37;;
7829;SDS011;3960;51.86894000;5.39848000;2022-12-15T00:48:55;23.92;;;13.38;;
7829;SDS011;3960;51.86894000;5.39848000;2022-12-15T00:51:21;22.15;;;12.98;;
7829;SDS011;3960;51.86894000;5.39848000;2022-12-15T00:53:46;22.60;;;13.55;;
7829;SDS011;3960;51.86894000;5.39848000;2022-12-15T00:56:30;22.77;;;11.85;;
7829;SDS011;3960;51.86894000;5.39848000;2022-12-15T00:59:14;23.05;;;12.30;;
7829;SDS011;3960;51.86894000;5.39848000;2022-12-15T01:01:58;23.88;;;12.70;;
7829;SDS011;3960;51.86894000;5.39848000;2022-12-15T01:04:42;23.17;;;12.85;;
7829;SDS011;3960;51.86894000;5.39848000;2022-12-15T01:07:26;23.60;;;13.07;;
7829;SDS011;3960;51.86894000;5.39848000;2022-12-15T01:10:10;25.52;;;13.30;;
7829;SDS011;3960;51.86894000;5.39848000;2022-12-15T01:12:54;22.50;;;12.43;;
7829;SDS011;3960;51.86894000;5.39848000;2022-12-15T01:15:38;21.85;;;12.45;;
7829;SDS011;3960;51.86894000;5.39848000;2022-12-15T01:18:22;23.65;;;12.13;;
7829;SDS011;3960;51.86894000;5.39848000;2022-12-15T01:21:06;22.90;;;12.82;;
7829;SDS011;3960;51.86894000;5.39848000;2022-12-15T01:23:34;28.13;;;13.15;;
7829;SDS011;3960;51.86894000;5.39848000;2022-12-15T01:26:00;28.67;;;13.27;;
7829;SDS011;3960;51.86894000;5.39848000;2022-12-15T01:28:25;24.92;;;12.68;;
7829;SDS011;3960;51.86894000;5.39848000;2022-12-15T01:30:50;21.63;;;12.53;;
7829;SDS011;3960;51.86894000;5.39848000;2022-12-15T01:33:16;23.65;;;12.73;;
7829;SDS011;3960;51.86894000;5.39848000;2022-12-15T01:35:42;28.08;;;13.77;;
7829;SDS011;3960;51.86894000;5.39848000;2022-12-15T01:38:07;24.37;;;12.37;;
7829;SDS011;3960;51.86894000;5.39848000;2022-12-15T01:40:32;22.40;;;12.23;;
7829;SDS011;3960;51.86894000;5.39848000;2022-12-15T01:43:21;20.95;;;12.10;;
7829;SDS011;3960;51.86894000;5.39848000;2022-12-15T01:45:48;22.40;;;12.13;;
7829;SDS011;3960;51.86894000;5.39848000;2022-12-15T01:48:18;23.05;;;12.45;;
7829;SDS011;3960;51.86894000;5.39848000;2022-12-15T01:50:45;29.38;;;12.55;;
7829;SDS011;3960;51.86894000;5.39848000;2022-12-15T01:53:11;22.42;;;12.15;;
7829;SDS011;3960;51.86894000;5.39848000;2022-12-15T01:55:37;22.05;;;12.82;;
7829;SDS011;3960;51.86894000;5.39848000;2022-12-15T01:58:05;21.83;;;11.70;;
7829;SDS011;3960;51.86894000;5.39848000;2022-12-15T02:00:32;26.83;;;13.05;;
7829;SDS011;3960;51.86894000;5.39848000;2022-12-15T02:02:57;27.23;;;12.57;;
7829;SDS011;3960;51.86894000;5.39848000;2022-12-15T02:05:24;21.67;;;11.45;;
7829;SDS011;3960;51.86894000;5.39848000;2022-12-15T02:07:49;25.52;;;12.93;;
7829;SDS011;3960;51.86894000;5.39848000;2022-12-15T02:10:14;20.97;;;10.93;;
7829;SDS011;3960;51.86894000;5.39848000;2022-12-15T02:12:56;25.80;;;12.23;;
7829;SDS011;3960;51.86894000;5.39848000;2022-12-15T02:18:09;19.57;;;11.93;;
7829;SDS011;3960;51.86894000;5.39848000;2022-12-15T02:28:17;20.55;;;11.48;;
7829;SDS011;3960;51.86894000;5.39848000;2022-12-15T02:33:42;30.33;;;13.32;;
7829;SDS011;3960;51.86894000;5.39848000;2022-12-15T02:36:13;22.17;;;12.57;;
7829;SDS011;3960;51.86894000;5.39848000;2022-12-15T02:38:40;25.90;;;13.23;;
7829;SDS011;3960;51.86894000;5.39848000;2022-12-15T02:41:27;28.13;;;13.23;;
7829;SDS011;3960;51.86894000;5.39848000;2022-12-15T02:43:50;20.45;;;12.60;;
7829;SDS011;3960;51.86894000;5.39848000;2022-12-15T02:46:19;22.63;;;12.60;;
7829;SDS011;3960;51.86894000;5.39848000;2022-12-15T02:54:15;25.25;;;12.38;;
7829;SDS011;3960;51.86894000;5.39848000;2022-12-15T02:59:24;26.42;;;13.52;;
7829;SDS011;3960;51.86894000;5.39848000;2022-12-15T03:02:01;30.00;;;13.20;;
7829;SDS011;3960;51.86894000;5.39848000;2022-12-15T03:04:29;26.98;;;13.38;;
7829;SDS011;3960;51.86894000;5.39848000;2022-12-15T03:06:58;23.75;;;13.23;;
7829;SDS011;3960;51.86894000;5.39848000;2022-12-15T03:09:24;24.67;;;13.25;;
7829;SDS011;3960;51.86894000;5.39848000;2022-12-15T03:11:49;28.13;;;12.93;;
7829;SDS011;3960;51.86894000;5.39848000;2022-12-15T03:14:15;36.33;;;13.60;;
7829;SDS011;3960;51.86894000;5.39848000;2022-12-15T03:16:40;27.60;;;13.83;;
7829;SDS011;3960;51.86894000;5.39848000;2022-12-15T03:19:05;31.10;;;14.20;;
7829;SDS011;3960;51.86894000;5.39848000;2022-12-15T03:21:30;24.13;;;12.90;;
7829;SDS011;3960;51.86894000;5.39848000;2022-12-15T03:23:55;23.80;;;13.43;;
7829;SDS011;3960;51.86894000;5.39848000;2022-12-15T03:26:20;24.43;;;12.77;;
7829;SDS011;3960;51.86894000;5.39848000;2022-12-15T03:28:45;21.13;;;13.07;;
7829;SDS011;3960;51.86894000;5.39848000;2022-12-15T03:31:11;24.53;;;13.30;;
7829;SDS011;3960;51.86894000;5.39848000;2022-12-15T03:33:36;26.97;;;13.63;;
7829;SDS011;3960;51.86894000;5.39848000;2022-12-15T03:36:01;24.00;;;12.87;;
7829;SDS011;3960;51.86894000;5.39848000;2022-12-15T03:38:26;22.73;;;12.63;;
7829;SDS011;3960;51.86894000;5.39848000;2022-12-15T03:40:51;29.00;;;14.13;;
7829;SDS011;3960;51.86894000;5.39848000;2022-12-15T03:43:16;28.10;;;14.13;;
7829;SDS011;3960;51.86894000;5.39848000;2022-12-15T03:45:42;27.87;;;14.53;;
7829;SDS011;3960;51.86894000;5.39848000;2022-12-15T03:48:07;24.77;;;14.68;;
7829;SDS011;3960;51.86894000;5.39848000;2022-12-15T03:50:32;30.80;;;14.27;;
7829;SDS011;3960;51.86894000;5.39848000;2022-12-15T03:52:58;25.92;;;14.73;;
7829;SDS011;3960;51.86894000;5.39848000;2022-12-15T03:55:24;25.90;;;13.68;;
7829;SDS011;3960;51.86894000;5.39848000;2022-12-15T03:57:49;32.25;;;15.65;;
7829;SDS011;3960;51.86894000;5.39848000;2022-12-15T04:00:15;27.73;;;15.07;;
7829;SDS011;3960;51.86894000;5.39848000;2022-12-15T04:02:42;24.08;;;13.27;;
7829;SDS011;3960;51.86894000;5.39848000;2022-12-15T04:05:07;26.40;;;14.02;;
7829;SDS011;3960;51.86894000;5.39848000;2022-12-15T04:07:32;31.42;;;14.65;;
7829;SDS011;3960;51.86894000;5.39848000;2022-12-15T04:09:57;28.97;;;14.93;;
7829;SDS011;3960;51.86894000;5.39848000;2022-12-15T04:12:23;28.90;;;14.65;;
7829;SDS011;3960;51.86894000;5.39848000;2022-12-15T04:14:48;28.47;;;14.83;;
7829;SDS011;3960;51.86894000;5.39848000;2022-12-15T04:17:13;28.40;;;14.00;;
7829;SDS011;3960;51.86894000;5.39848000;2022-12-15T04:19:38;28.80;;;15.18;;
7829;SDS011;3960;51.86894000;5.39848000;2022-12-15T04:22:22;22.88;;;14.45;;
7829;SDS011;3960;51.86894000;5.39848000;2022-12-15T04:24:47;29.80;;;14.48;;
7829;SDS011;3960;51.86894000;5.39848000;2022-12-15T04:27:31;29.48;;;14.30;;
7829;SDS011;3960;51.86894000;5.39848000;2022-12-15T04:30:15;27.52;;;14.15;;
7829;SDS011;3960;51.86894000;5.39848000;2022-12-15T04:32:59;25.35;;;13.73;;
7829;SDS011;3960;51.86894000;5.39848000;2022-12-15T04:35:43;27.77;;;15.45;;
7829;SDS011;3960;51.86894000;5.39848000;2022-12-15T04:38:28;26.85;;;14.45;;
7829;SDS011;3960;51.86894000;5.39848000;2022-12-15T04:41:12;29.88;;;15.02;;
7829;SDS011;3960;51.86894000;5.39848000;2022-12-15T04:43:56;26.63;;;14.10;;
7829;SDS011;3960;51.86894000;5.39848000;2022-12-15T04:46:40;26.98;;;14.45;;
7829;SDS011;3960;51.86894000;5.39848000;2022-12-15T04:49:24;28.90;;;15.88;;
7829;SDS011;3960;51.86894000;5.39848000;2022-12-15T04:52:08;24.75;;;14.77;;
7829;SDS011;3960;51.86894000;5.39848000;2022-12-15T04:54:52;26.75;;;14.93;;
7829;SDS011;3960;51.86894000;5.39848000;2022-12-15T04:57:36;33.22;;;15.85;;
7829;SDS011;3960;51.86894000;5.39848000;2022-12-15T05:00:20;29.23;;;16.00;;
7829;SDS011;3960;51.86894000;5.39848000;2022-12-15T05:03:05;28.52;;;15.38;;
7829;SDS011;3960;51.86894000;5.39848000;2022-12-15T05:05:49;30.77;;;16.02;;
7829;SDS011;3960;51.86894000;5.39848000;2022-12-15T05:08:33;30.50;;;16.65;;
7829;SDS011;3960;51.86894000;5.39848000;2022-12-15T05:11:17;36.67;;;16.50;;
7829;SDS011;3960;51.86894000;5.39848000;2022-12-15T05:14:01;29.27;;;16.73;;
7829;SDS011;3960;51.86894000;5.39848000;2022-12-15T05:16:45;31.52;;;16.70;;
7829;SDS011;3960;51.86894000;5.39848000;2022-12-15T05:19:29;30.63;;;16.92;;
7829;SDS011;3960;51.86894000;5.39848000;2022-12-15T05:22:13;34.92;;;16.95;;
7829;SDS011;3960;51.86894000;5.39848000;2022-12-15T05:24:57;29.52;;;17.00;;
7829;SDS011;3960;51.86894000;5.39848000;2022-12-15T05:27:41;31.88;;;15.60;;
7829;SDS011;3960;51.86894000;5.39848000;2022-12-15T05:30:25;30.75;;;16.10;;
7829;SDS011;3960;51.86894000;5.39848000;2022-12-15T05:33:09;36.58;;;17.58;;
7829;SDS011;3960;51.86894000;5.39848000;2022-12-15T05:35:34;30.23;;;16.00;;
7829;SDS011;3960;51.86894000;5.39848000;2022-12-15T05:37:59;28.90;;;16.45;;
7829;SDS011;3960;51.86894000;5.39848000;2022-12-15T05:40:24;37.60;;;18.50;;
7829;SDS011;3960;51.86894000;5.39848000;2022-12-15T05:42:49;29.17;;;16.10;;
7829;SDS011;3960;51.86894000;5.39848000;2022-12-15T05:45:15;30.23;;;16.23;;
7829;SDS011;3960;51.86894000;5.39848000;2022-12-15T05:47:41;33.15;;;17.38;;
7829;SDS011;3960;51.86894000;5.39848000;2022-12-15T05:50:06;32.58;;;16.38;;
7829;SDS011;3960;51.86894000;5.39848000;2022-12-15T05:52:31;33.53;;;17.15;;
7829;SDS011;3960;51.86894000;5.39848000;2022-12-15T05:54:57;30.03;;;16.83;;
7829;SDS011;3960;51.86894000;5.39848000;2022-12-15T05:57:22;34.70;;;16.92;;
7829;SDS011;3960;51.86894000;5.39848000;2022-12-15T05:59:47;29.87;;;15.53;;
7829;SDS011;3960;51.86894000;5.39848000;2022-12-15T06:02:12;29.10;;;17.33;;
7829;SDS011;3960;51.86894000;5.39848000;2022-12-15T06:04:37;32.00;;;17.23;;
7829;SDS011;3960;51.86894000;5.39848000;2022-12-15T06:07:02;33.10;;;17.87;;
7829;SDS011;3960;51.86894000;5.39848000;2022-12-15T06:09:28;33.25;;;17.90;;
7829;SDS011;3960;51.86894000;5.39848000;2022-12-15T06:11:53;32.60;;;17.33;;
7829;SDS011;3960;51.86894000;5.39848000;2022-12-15T06:14:18;34.43;;;17.70;;
7829;SDS011;3960;51.86894000;5.39848000;2022-12-15T06:16:43;34.80;;;18.50;;
7829;SDS011;3960;51.86894000;5.39848000;2022-12-15T06:19:08;43.30;;;18.20;;
7829;SDS011;3960;51.86894000;5.39848000;2022-12-15T06:21:34;36.35;;;17.45;;
7829;SDS011;3960;51.86894000;5.39848000;2022-12-15T06:24:00;32.65;;;16.75;;
7829;SDS011;3960;51.86894000;5.39848000;2022-12-15T06:26:26;35.05;;;17.33;;
7829;SDS011;3960;51.86894000;5.39848000;2022-12-15T06:28:53;34.63;;;17.15;;
7829;SDS011;3960;51.86894000;5.39848000;2022-12-15T06:31:19;33.40;;;17.98;;
7829;SDS011;3960;51.86894000;5.39848000;2022-12-15T06:33:46;30.92;;;17.27;;
7829;SDS011;3960;51.86894000;5.39848000;2022-12-15T06:36:12;37.03;;;17.73;;
7829;SDS011;3960;51.86894000;5.39848000;2022-12-15T06:38:38;34.15;;;17.83;;
7829;SDS011;3960;51.86894000;5.39848000;2022-12-15T06:41:04;37.42;;;17.42;;
7829;SDS011;3960;51.86894000;5.39848000;2022-12-15T06:43:30;33.20;;;18.33;;
7829;SDS011;3960;51.86894000;5.39848000;2022-12-15T06:45:55;38.50;;;17.90;;
7829;SDS011;3960;51.86894000;5.39848000;2022-12-15T06:48:21;36.67;;;17.80;;
7829;SDS011;3960;51.86894000;5.39848000;2022-12-15T06:50:46;30.73;;;17.70;;
7829;SDS011;3960;51.86894000;5.39848000;2022-12-15T06:53:12;41.63;;;18.90;;
7829;SDS011;3960;51.86894000;5.39848000;2022-12-15T06:55:37;34.53;;;19.98;;
7829;SDS011;3960;51.86894000;5.39848000;2022-12-15T06:58:02;31.42;;;18.33;;
7829;SDS011;3960;51.86894000;5.39848000;2022-12-15T07:00:28;32.70;;;17.67;;
7829;SDS011;3960;51.86894000;5.39848000;2022-12-15T07:02:53;35.00;;;18.38;;
7829;SDS011;3960;51.86894000;5.39848000;2022-12-15T07:05:19;31.83;;;18.30;;
7829;SDS011;3960;51.86894000;5.39848000;2022-12-15T07:07:45;39.72;;;19.55;;
7829;SDS011;3960;51.86894000;5.39848000;2022-12-15T07:10:10;35.80;;;18.40;;
7829;SDS011;3960;51.86894000;5.39848000;2022-12-15T07:12:35;37.58;;;18.40;;
7829;SDS011;3960;51.86894000;5.39848000;2022-12-15T07:15:01;32.83;;;18.70;;
7829;SDS011;3960;51.86894000;5.39848000;2022-12-15T07:17:27;36.97;;;20.13;;
7829;SDS011;3960;51.86894000;5.39848000;2022-12-15T07:19:52;42.95;;;19.05;;
7829;SDS011;3960;51.86894000;5.39848000;2022-12-15T07:22:17;32.70;;;19.00;;
7829;SDS011;3960;51.86894000;5.39848000;2022-12-15T07:24:42;33.20;;;18.83;;
7829;SDS011;3960;51.86894000;5.39848000;2022-12-15T07:27:07;34.83;;;18.97;;
7829;SDS011;3960;51.86894000;5.39848000;2022-12-15T07:29:33;34.40;;;18.70;;
7829;SDS011;3960;51.86894000;5.39848000;2022-12-15T07:31:58;41.20;;;19.90;;
7829;SDS011;3960;51.86894000;5.39848000;2022-12-15T07:34:24;36.08;;;19.30;;
7829;SDS011;3960;51.86894000;5.39848000;2022-12-15T07:36:50;36.13;;;19.60;;
7829;SDS011;3960;51.86894000;5.39848000;2022-12-15T07:39:15;33.72;;;18.85;;
7829;SDS011;3960;51.86894000;5.39848000;2022-12-15T07:41:40;41.30;;;20.20;;
7829;SDS011;3960;51.86894000;5.39848000;2022-12-15T07:44:05;33.28;;;18.50;;
7829;SDS011;3960;51.86894000;5.39848000;2022-12-15T07:46:30;34.13;;;18.98;;
7829;SDS011;3960;51.86894000;5.39848000;2022-12-15T07:48:56;42.33;;;20.75;;
7829;SDS011;3960;51.86894000;5.39848000;2022-12-15T07:51:21;39.03;;;21.02;;
7829;SDS011;3960;51.86894000;5.39848000;2022-12-15T07:53:47;39.13;;;21.75;;
7829;SDS011;3960;51.86894000;5.39848000;2022-12-15T07:56:13;39.03;;;19.58;;
7829;SDS011;3960;51.86894000;5.39848000;2022-12-15T07:58:39;45.63;;;19.88;;
7829;SDS011;3960;51.86894000;5.39848000;2022-12-15T08:01:05;37.90;;;20.33;;
7829;SDS011;3960;51.86894000;5.39848000;2022-12-15T08:03:30;41.13;;;20.83;;
7829;SDS011;3960;51.86894000;5.39848000;2022-12-15T08:05:56;38.78;;;20.20;;
7829;SDS011;3960;51.86894000;5.39848000;2022-12-15T08:08:21;47.23;;;20.63;;
7829;SDS011;3960;51.86894000;5.39848000;2022-12-15T08:10:46;40.35;;;20.73;;
7829;SDS011;3960;51.86894000;5.39848000;2022-12-15T08:13:12;36.97;;;20.25;;
7829;SDS011;3960;51.86894000;5.39848000;2022-12-15T08:15:37;43.65;;;20.77;;
7829;SDS011;3960;51.86894000;5.39848000;2022-12-15T08:18:03;48.72;;;20.83;;
7829;SDS011;3960;51.86894000;5.39848000;2022-12-15T08:20:29;36.10;;;19.70;;
7829;SDS011;3960;51.86894000;5.39848000;2022-12-15T08:22:55;39.33;;;20.58;;
7829;SDS011;3960;51.86894000;5.39848000;2022-12-15T08:25:20;35.85;;;20.15;;
7829;SDS011;3960;51.86894000;5.39848000;2022-12-15T08:27:51;38.17;;;20.75;;
7829;SDS011;3960;51.86894000;5.39848000;2022-12-15T08:30:17;39.58;;;21.25;;
7829;SDS011;3960;51.86894000;5.39848000;2022-12-15T08:32:42;37.75;;;20.55;;
7829;SDS011;3960;51.86894000;5.39848000;2022-12-15T08:35:08;39.05;;;20.33;;
7829;SDS011;3960;51.86894000;5.39848000;2022-12-15T08:37:33;36.67;;;20.77;;
7829;SDS011;3960;51.86894000;5.39848000;2022-12-15T08:39:58;39.28;;;21.48;;
7829;SDS011;3960;51.86894000;5.39848000;2022-12-15T08:42:23;37.63;;;21.02;;
7829;SDS011;3960;51.86894000;5.39848000;2022-12-15T08:44:49;47.92;;;22.35;;
7829;SDS011;3960;51.86894000;5.39848000;2022-12-15T08:47:14;41.33;;;21.97;;
7829;SDS011;3960;51.86894000;5.39848000;2022-12-15T08:49:39;42.10;;;22.55;;
7829;SDS011;3960;51.86894000;5.39848000;2022-12-15T08:52:04;44.77;;;22.07;;
7829;SDS011;3960;51.86894000;5.39848000;2022-12-15T08:54:29;43.60;;;22.42;;
7829;SDS011;3960;51.86894000;5.39848000;2022-12-15T08:56:56;39.42;;;21.27;;
7829;SDS011;3960;51.86894000;5.39848000;2022-12-15T08:59:21;40.83;;;22.37;;
7829;SDS011;3960;51.86894000;5.39848000;2022-12-15T09:01:46;45.30;;;23.58;;
7829;SDS011;3960;51.86894000;5.39848000;2022-12-15T09:04:12;40.20;;;22.08;;
7829;SDS011;3960;51.86894000;5.39848000;2022-12-15T09:06:37;38.00;;;22.60;;
7829;SDS011;3960;51.86894000;5.39848000;2022-12-15T09:09:06;39.72;;;21.73;;
7829;SDS011;3960;51.86894000;5.39848000;2022-12-15T09:11:31;43.95;;;23.58;;
7829;SDS011;3960;51.86894000;5.39848000;2022-12-15T09:13:56;41.28;;;23.27;;
7829;SDS011;3960;51.86894000;5.39848000;2022-12-15T09:16:22;43.37;;;22.67;;
7829;SDS011;3960;51.86894000;5.39848000;2022-12-15T09:18:48;39.65;;;22.63;;
7829;SDS011;3960;51.86894000;5.39848000;2022-12-15T09:21:14;45.78;;;23.38;;
7829;SDS011;3960;51.86894000;5.39848000;2022-12-15T09:23:39;39.53;;;23.30;;
7829;SDS011;3960;51.86894000;5.39848000;2022-12-15T09:26:05;39.17;;;21.93;;
7829;SDS011;3960;51.86894000;5.39848000;2022-12-15T09:28:31;42.75;;;23.05;;
7829;SDS011;3960;51.86894000;5.39848000;2022-12-15T09:31:03;45.75;;;24.60;;
7829;SDS011;3960;51.86894000;5.39848000;2022-12-15T09:33:28;41.28;;;23.13;;
7829;SDS011;3960;51.86894000;5.39848000;2022-12-15T09:35:54;38.35;;;22.27;;
7829;SDS011;3960;51.86894000;5.39848000;2022-12-15T09:38:19;39.83;;;21.53;;
7829;SDS011;3960;51.86894000;5.39848000;2022-12-15T09:40:44;40.37;;;22.30;;
7829;SDS011;3960;51.86894000;5.39848000;2022-12-15T09:43:10;41.13;;;23.45;;
7829;SDS011;3960;51.86894000;5.39848000;2022-12-15T09:45:40;36.17;;;21.75;;
7829;SDS011;3960;51.86894000;5.39848000;2022-12-15T09:48:16;43.20;;;24.50;;
7829;SDS011;3960;51.86894000;5.39848000;2022-12-15T09:50:42;39.05;;;22.75;;
7829;SDS011;3960;51.86894000;5.39848000;2022-12-15T09:53:10;35.88;;;22.83;;
7829;SDS011;3960;51.86894000;5.39848000;2022-12-15T09:55:36;45.08;;;23.75;;
7829;SDS011;3960;51.86894000;5.39848000;2022-12-15T09:58:03;38.50;;;23.77;;
7829;SDS011;3960;51.86894000;5.39848000;2022-12-15T10:00:41;43.03;;;24.13;;
7829;SDS011;3960;51.86894000;5.39848000;2022-12-15T10:08:17;45.78;;;23.63;;
7829;SDS011;3960;51.86894000;5.39848000;2022-12-15T10:13:12;42.58;;;24.30;;
7829;SDS011;3960;51.86894000;5.39848000;2022-12-15T10:15:45;37.83;;;24.90;;
7829;SDS011;3960;51.86894000;5.39848000;2022-12-15T10:18:21;43.42;;;25.10;;
7829;SDS011;3960;51.86894000;5.39848000;2022-12-15T10:20:47;42.75;;;24.38;;
7829;SDS011;3960;51.86894000;5.39848000;2022-12-15T10:23:15;43.95;;;24.80;;
7829;SDS011;3960;51.86894000;5.39848000;2022-12-15T10:25:46;38.45;;;22.98;;
7829;SDS011;3960;51.86894000;5.39848000;2022-12-15T10:30:50;47.97;;;24.85;;
7829;SDS011;3960;51.86894000;5.39848000;2022-12-15T10:33:17;38.97;;;24.17;;
7829;SDS011;3960;51.86894000;5.39848000;2022-12-15T10:35:46;48.47;;;25.00;;
7829;SDS011;3960;51.86894000;5.39848000;2022-12-15T10:40:57;45.38;;;26.08;;
7829;SDS011;3960;51.86894000;5.39848000;2022-12-15T10:43:33;45.75;;;26.52;;
7829;SDS011;3960;51.86894000;5.39848000;2022-12-15T10:46:02;42.13;;;25.42;;
7829;SDS011;3960;51.86894000;5.39848000;2022-12-15T10:48:28;44.97;;;25.30;;
7829;SDS011;3960;51.86894000;5.39848000;2022-12-15T10:54:01;45.53;;;25.17;;
7829;SDS011;3960;51.86894000;5.39848000;2022-12-15T10:56:28;41.97;;;24.60;;
7829;SDS011;3960;51.86894000;5.39848000;2022-12-15T10:58:55;40.30;;;24.05;;
7829;SDS011;3960;51.86894000;5.39848000;2022-12-15T11:01:33;45.58;;;25.67;;
7829;SDS011;3960;51.86894000;5.39848000;2022-12-15T11:03:58;44.10;;;26.20;;
7829;SDS011;3960;51.86894000;5.39848000;2022-12-15T11:06:25;45.50;;;24.85;;
7829;SDS011;3960;51.86894000;5.39848000;2022-12-15T11:08:53;53.25;;;26.17;;
7829;SDS011;3960;51.86894000;5.39848000;2022-12-15T11:11:26;43.15;;;25.17;;
7829;SDS011;3960;51.86894000;5.39848000;2022-12-15T11:14:11;43.65;;;25.00;;
7829;SDS011;3960;51.86894000;5.39848000;2022-12-15T11:16:41;38.30;;;24.27;;
7829;SDS011;3960;51.86894000;5.39848000;2022-12-15T11:21:54;41.97;;;23.52;;
7829;SDS011;3960;51.86894000;5.39848000;2022-12-15T11:24:34;35.83;;;22.75;;
7829;SDS011;3960;51.86894000;5.39848000;2022-12-15T11:27:02;40.40;;;23.50;;
7829;SDS011;3960;51.86894000;5.39848000;2022-12-15T11:29:43;38.33;;;23.27;;
7829;SDS011;3960;51.86894000;5.39848000;2022-12-15T11:32:09;39.50;;;22.77;;
7829;SDS011;3960;51.86894000;5.39848000;2022-12-15T11:34:43;38.80;;;21.17;;
7829;SDS011;3960;51.86894000;5.39848000;2022-12-15T11:45:08;41.65;;;21.10;;
7829;SDS011;3960;51.86894000;5.39848000;2022-12-15T11:47:42;33.20;;;21.05;;
7829;SDS011;3960;51.86894000;5.39848000;2022-12-15T11:52:39;35.87;;;21.07;;
7829;SDS011;3960;51.86894000;5.39848000;2022-12-15T12:00:18;31.25;;;20.42;;
7829;SDS011;3960;51.86894000;5.39848000;2022-12-15T12:03:01;35.47;;;20.77;;
7829;SDS011;3960;51.86894000;5.39848000;2022-12-15T12:18:34;31.50;;;20.35;;
7829;SDS011;3960;51.86894000;5.39848000;2022-12-15T12:21:09;30.83;;;19.75;;
7829;SDS011;3960;51.86894000;5.39848000;2022-12-15T12:26:05;33.97;;;20.05;;
7829;SDS011;3960;51.86894000;5.39848000;2022-12-15T12:28:33;35.42;;;21.35;;
7829;SDS011;3960;51.86894000;5.39848000;2022-12-15T12:31:00;34.22;;;21.15;;
7829;SDS011;3960;51.86894000;5.39848000;2022-12-15T12:33:31;31.08;;;19.90;;
7829;SDS011;3960;51.86894000;5.39848000;2022-12-15T12:38:23;32.20;;;21.83;;
7829;SDS011;3960;51.86894000;5.39848000;2022-12-15T12:43:34;36.60;;;22.67;;
7829;SDS011;3960;51.86894000;5.39848000;2022-12-15T12:51:15;37.88;;;22.70;;
7829;SDS011;3960;51.86894000;5.39848000;2022-12-15T12:53:41;35.33;;;21.92;;
7829;SDS011;3960;51.86894000;5.39848000;2022-12-15T12:56:16;33.33;;;21.23;;
7829;SDS011;3960;51.86894000;5.39848000;2022-12-15T12:58:52;32.70;;;21.35;;
7829;SDS011;3960;51.86894000;5.39848000;2022-12-15T13:01:30;35.40;;;21.90;;
7829;SDS011;3960;51.86894000;5.39848000;2022-12-15T13:08:59;34.60;;;21.63;;
7829;SDS011;3960;51.86894000;5.39848000;2022-12-15T13:14:12;34.67;;;20.83;;
7829;SDS011;3960;51.86894000;5.39848000;2022-12-15T13:16:37;36.67;;;22.63;;
7829;SDS011;3960;51.86894000;5.39848000;2022-12-15T13:19:04;34.42;;;21.90;;
7829;SDS011;3960;51.86894000;5.39848000;2022-12-15T13:26:48;34.65;;;21.95;;
7829;SDS011;3960;51.86894000;5.39848000;2022-12-15T13:29:13;42.00;;;23.38;;
7829;SDS011;3960;51.86894000;5.39848000;2022-12-15T13:31:44;34.05;;;22.33;;
7829;SDS011;3960;51.86894000;5.39848000;2022-12-15T13:34:14;37.95;;;23.25;;
7829;SDS011;3960;51.86894000;5.39848000;2022-12-15T13:44:14;33.22;;;21.45;;
7829;SDS011;3960;51.86894000;5.39848000;2022-12-15T13:46:45;36.47;;;22.02;;
7829;SDS011;3960;51.86894000;5.39848000;2022-12-15T13:49:15;36.55;;;22.65;;
7829;SDS011;3960;51.86894000;5.39848000;2022-12-15T13:51:41;32.70;;;22.38;;
7829;SDS011;3960;51.86894000;5.39848000;2022-12-15T13:56:43;34.13;;;22.95;;
7829;SDS011;3960;51.86894000;5.39848000;2022-12-15T13:59:17;36.95;;;23.48;;
7829;SDS011;3960;51.86894000;5.39848000;2022-12-15T14:01:47;39.22;;;23.35;;
7829;SDS011;3960;51.86894000;5.39848000;2022-12-15T14:04:13;40.58;;;24.40;;
7829;SDS011;3960;51.86894000;5.39848000;2022-12-15T14:06:44;32.25;;;22.52;;
7829;SDS011;3960;51.86894000;5.39848000;2022-12-15T14:09:11;41.83;;;23.90;;
7829;SDS011;3960;51.86894000;5.39848000;2022-12-15T14:11:38;33.28;;;22.40;;
7829;SDS011;3960;51.86894000;5.39848000;2022-12-15T14:14:05;32.83;;;22.85;;
7829;SDS011;3960;51.86894000;5.39848000;2022-12-15T14:16:31;35.77;;;23.03;;
7829;SDS011;3960;51.86894000;5.39848000;2022-12-15T14:21:28;34.90;;;22.10;;
7829;SDS011;3960;51.86894000;5.39848000;2022-12-15T14:23:54;33.63;;;21.85;;
7829;SDS011;3960;51.86894000;5.39848000;2022-12-15T14:26:24;34.78;;;21.77;;
7829;SDS011;3960;51.86894000;5.39848000;2022-12-15T14:28:57;35.00;;;22.67;;
7829;SDS011;3960;51.86894000;5.39848000;2022-12-15T14:31:23;37.90;;;21.67;;
7829;SDS011;3960;51.86894000;5.39848000;2022-12-15T14:33:51;40.63;;;22.65;;
7829;SDS011;3960;51.86894000;5.39848000;2022-12-15T14:36:18;35.03;;;22.83;;
7829;SDS011;3960;51.86894000;5.39848000;2022-12-15T14:38:55;34.25;;;23.15;;
7829;SDS011;3960;51.86894000;5.39848000;2022-12-15T14:41:22;37.70;;;22.80;;
7829;SDS011;3960;51.86894000;5.39848000;2022-12-15T14:43:48;34.85;;;22.48;;
7829;SDS011;3960;51.86894000;5.39848000;2022-12-15T14:46:15;39.05;;;23.63;;
7829;SDS011;3960;51.86894000;5.39848000;2022-12-15T14:48:42;35.45;;;23.17;;
7829;SDS011;3960;51.86894000;5.39848000;2022-12-15T14:51:08;39.50;;;23.10;;